createdAt,value
2019-03-26T00:01:17.688Z,19.07
2019-03-26T00:03:47.812Z,14.63
2019-03-26T00:06:18.341Z,20.93
2019-03-26T00:08:48.863Z,16.73
2019-03-26T00:11:19.186Z,16.47
2019-03-26T00:13:49.510Z,21.43
2019-03-26T00:16:19.629Z,12.87
2019-03-26T00:18:50.158Z,18.17
2019-03-26T00:21:20.690Z,17.07
2019-03-26T00:23:51.419Z,24.97
2019-03-26T00:26:23.177Z,32.10
2019-03-26T00:28:53.500Z,20.20
2019-03-26T00:31:23.824Z,24.40
2019-03-26T00:33:54.147Z,21.57
2019-03-26T00:36:24.871Z,23.77
2019-03-26T00:38:55.008Z,27.60
2019-03-26T00:41:26.350Z,22.70
2019-03-26T00:43:56.467Z,24.67
2019-03-26T00:46:26.995Z,26.43
2019-03-26T00:48:57.104Z,15.67
2019-03-26T00:51:27.645Z,20.87
2019-03-26T00:53:57.974Z,21.97
2019-03-26T00:56:28.495Z,31.33
2019-03-26T00:58:59.228Z,22.43
2019-03-26T01:01:29.543Z,17.07
2019-03-26T01:03:59.876Z,25.33
2019-03-26T01:06:30.403Z,28.33
2019-03-26T01:09:00.524Z,33.87
2019-03-26T01:11:31.051Z,25.73
2019-03-26T01:14:01.378Z,26.93
2019-03-26T01:16:31.703Z,25.83
2019-03-26T01:19:02.025Z,25.37
2019-03-26T01:21:32.348Z,31.33
2019-03-26T01:24:02.678Z,27.17
2019-03-26T01:26:32.879Z,21.77
2019-03-26T01:29:03.732Z,28.73
2019-03-26T01:31:34.052Z,28.77
2019-03-26T01:34:04.787Z,25.87
2019-03-26T01:36:35.108Z,46.17
2019-03-26T01:39:07.687Z,25.17
2019-03-26T01:41:38.622Z,17.83
2019-03-26T01:44:09.156Z,23.57
2019-03-26T01:46:39.474Z,22.27
2019-03-26T01:49:09.798Z,23.20
2019-03-26T01:51:40.327Z,38.43
2019-03-26T01:54:10.849Z,21.07
2019-03-26T01:56:40.974Z,57.53
2019-03-26T01:59:11.297Z,57.30
2019-03-26T02:01:41.417Z,154.23
2019-03-26T02:04:11.945Z,53.83
2019-03-26T02:06:42.473Z,45.93
2019-03-26T02:09:12.798Z,27.77
2019-03-26T02:11:43.328Z,21.67
2019-03-26T02:14:13.650Z,20.53
2019-03-26T02:16:43.974Z,31.73
2019-03-26T02:19:14.501Z,47.83
2019-03-26T02:21:44.825Z,41.70
2019-03-26T02:24:15.151Z,61.03
2019-03-26T02:26:45.472Z,33.87
2019-03-26T02:29:16.004Z,38.30
2019-03-26T02:31:46.332Z,34.03
2019-03-26T02:34:28.605Z,23.20
2019-03-26T02:36:58.853Z,19.57
2019-03-26T02:39:29.380Z,34.97
2019-03-26T02:42:00.115Z,27.00
2019-03-26T02:44:30.437Z,31.40
2019-03-26T02:47:00.790Z,16.60
2019-03-26T02:49:31.274Z,17.97
2019-03-26T02:52:02.433Z,17.77
2019-03-26T02:54:32.492Z,38.97
2019-03-26T02:57:03.346Z,41.00
2019-03-26T02:59:33.818Z,43.77
2019-03-26T03:02:04.135Z,41.60
2019-03-26T03:04:34.464Z,49.83
2019-03-26T03:07:04.788Z,14.73
2019-03-26T03:09:35.107Z,32.90
2019-03-26T03:12:05.241Z,22.70
2019-03-26T03:14:36.773Z,19.63
2019-03-26T03:17:06.903Z,24.37
2019-03-26T03:19:37.221Z,23.30
2019-03-26T03:22:07.749Z,17.23
2019-03-26T03:24:38.282Z,18.83
2019-03-26T03:27:08.609Z,20.50
2019-03-26T03:29:38.721Z,18.83
2019-03-26T03:32:09.045Z,14.97
2019-03-26T03:34:39.573Z,19.60
2019-03-26T03:37:09.898Z,26.97
2019-03-26T03:39:40.221Z,20.33
2019-03-26T03:42:10.433Z,22.40
2019-03-26T03:44:41.075Z,29.10
2019-03-26T03:47:14.058Z,26.33
2019-03-26T03:49:44.793Z,27.87
2019-03-26T03:52:16.246Z,28.87
2019-03-26T03:54:48.521Z,39.97
2019-03-26T03:57:19.042Z,92.43
2019-03-26T03:59:50.050Z,37.33
2019-03-26T04:02:20.304Z,52.97
2019-03-26T04:04:50.627Z,35.63
2019-03-26T04:07:20.953Z,26.27
2019-03-26T04:09:51.273Z,22.10
2019-03-26T04:12:21.596Z,21.40
2019-03-26T04:14:51.924Z,30.23
2019-03-26T04:17:22.248Z,23.53
2019-03-26T04:19:52.575Z,22.23
2019-03-26T04:22:22.686Z,20.13
2019-03-26T04:24:53.216Z,22.57
2019-03-26T04:27:23.541Z,20.27
2019-03-26T04:29:54.124Z,22.73
2019-03-26T04:32:24.601Z,27.90
2019-03-26T04:34:55.534Z,31.20
2019-03-26T04:37:25.858Z,33.30
2019-03-26T04:39:56.797Z,20.33
2019-03-26T04:42:27.120Z,24.73
2019-03-26T04:44:57.443Z,25.57
2019-03-26T04:47:27.767Z,25.33
2019-03-26T04:49:57.885Z,21.83
2019-03-26T04:52:28.212Z,26.17
2019-03-26T04:54:58.534Z,23.47
2019-03-26T04:57:28.859Z,26.80
2019-03-26T04:59:58.975Z,33.40
2019-03-26T05:02:29.345Z,31.10
2019-03-26T05:04:59.828Z,23.23
2019-03-26T05:07:30.151Z,30.43
2019-03-26T05:10:00.475Z,32.27
2019-03-26T05:12:30.594Z,30.03
2019-03-26T05:15:01.123Z,24.97
2019-03-26T05:17:32.264Z,36.10
2019-03-26T05:20:02.387Z,39.73
2019-03-26T05:22:32.504Z,38.43
2019-03-26T05:25:02.830Z,33.70
2019-03-26T05:27:44.791Z,31.33
2019-03-26T05:30:07.781Z,28.50
2019-03-26T05:32:38.303Z,34.37
2019-03-26T05:35:10.253Z,36.77
2019-03-26T05:37:40.793Z,45.20
2019-03-26T05:40:11.732Z,51.43
2019-03-26T05:42:42.670Z,49.37
2019-03-26T05:45:13.403Z,51.40
2019-03-26T05:47:43.613Z,54.00
2019-03-26T05:50:14.665Z,53.73
2019-03-26T05:52:45.398Z,66.50
2019-03-26T05:55:15.722Z,60.13
2019-03-26T05:57:46.120Z,60.97
2019-03-26T06:00:19.649Z,69.73
2019-03-26T06:02:49.971Z,70.77
2019-03-26T06:05:20.500Z,60.43
2019-03-26T06:07:50.822Z,49.17
2019-03-26T06:10:21.147Z,51.77
2019-03-26T06:13:10.927Z,50.20
2019-03-26T06:15:41.249Z,45.90
2019-03-26T06:18:11.984Z,57.57
2019-03-26T06:20:42.715Z,52.93
2019-03-26T06:23:13.042Z,55.10
2019-03-26T06:25:43.363Z,55.53
2019-03-26T06:28:14.309Z,53.37
2019-03-26T06:30:46.298Z,54.40
2019-03-26T06:33:18.816Z,44.10
2019-03-26T06:35:49.259Z,59.40
2019-03-26T06:38:19.887Z,51.03
2019-03-26T06:40:50.221Z,43.50
2019-03-26T06:43:20.223Z,38.77
2019-03-26T06:45:50.663Z,31.73
2019-03-26T06:48:21.194Z,33.60
2019-03-26T06:50:51.515Z,26.83
2019-03-26T06:53:21.839Z,29.97
2019-03-26T06:55:52.163Z,28.23
2019-03-26T06:58:22.283Z,29.50
2019-03-26T07:00:52.799Z,33.07
2019-03-26T07:03:23.338Z,25.03
2019-03-26T07:05:53.662Z,20.63
2019-03-26T07:08:23.781Z,20.47
2019-03-26T07:10:54.311Z,24.33
2019-03-26T07:13:24.841Z,20.60
2019-03-26T07:15:55.776Z,20.77
2019-03-26T07:18:27.971Z,27.97
2019-03-26T07:20:58.271Z,25.97
2019-03-26T07:23:28.786Z,21.13
2019-03-26T07:25:59.531Z,21.10
2019-03-26T07:28:31.083Z,17.57
2019-03-26T07:31:01.816Z,15.67
2019-03-26T07:33:32.755Z,12.73
2019-03-26T07:36:06.971Z,14.77
2019-03-26T07:38:37.907Z,16.83
2019-03-26T07:41:08.641Z,14.63
2019-03-26T07:43:38.964Z,14.57
2019-03-26T07:46:09.291Z,19.70
2019-03-26T07:48:39.805Z,21.27
2019-03-26T07:51:09.937Z,19.00
2019-03-26T07:53:40.054Z,13.80
2019-03-26T07:56:10.377Z,17.10
2019-03-26T07:58:40.906Z,17.33
2019-03-26T08:01:11.230Z,15.13
2019-03-26T08:03:41.553Z,15.63
2019-03-26T08:06:11.660Z,18.23
2019-03-26T08:08:42.007Z,16.87
2019-03-26T08:11:31.366Z,30.97
2019-03-26T08:14:01.691Z,31.03
2019-03-26T08:16:32.015Z,65.63
2019-03-26T08:19:02.339Z,29.77
2019-03-26T08:21:32.460Z,29.73
2019-03-26T08:24:02.781Z,19.53
2019-03-26T08:26:32.900Z,22.43
2019-03-26T08:29:03.428Z,22.90
2019-03-26T08:31:33.547Z,24.83
2019-03-26T08:34:04.082Z,18.17
2019-03-26T08:36:34.623Z,20.23
2019-03-26T08:39:07.123Z,19.80
2019-03-26T08:41:37.300Z,22.73
2019-03-26T08:44:07.625Z,14.63
2019-03-26T08:46:38.141Z,16.80
2019-03-26T08:49:08.271Z,8.97
2019-03-26T08:51:38.596Z,16.17
2019-03-26T08:54:09.123Z,14.43
2019-03-26T08:56:39.244Z,20.67
2019-03-26T08:59:09.566Z,15.40
2019-03-26T09:01:39.684Z,11.87
2019-03-26T09:04:10.403Z,14.90
2019-03-26T09:06:50.366Z,14.50
2019-03-26T09:09:20.581Z,10.70
2019-03-26T09:11:50.810Z,13.13
2019-03-26T09:14:21.119Z,12.97
2019-03-26T09:16:51.661Z,14.33
2019-03-26T09:19:22.396Z,17.00
2019-03-26T09:21:52.604Z,10.93
2019-03-26T09:24:22.838Z,11.33
2019-03-26T09:26:53.162Z,8.87
2019-03-26T09:29:23.486Z,11.53
2019-03-26T09:31:53.809Z,10.17
2019-03-26T09:34:24.132Z,14.50
2019-03-26T09:36:54.866Z,16.37
2019-03-26T09:39:25.190Z,13.43
2019-03-26T09:41:55.516Z,24.03
2019-03-26T09:44:25.839Z,14.23
2019-03-26T09:46:56.161Z,15.57
2019-03-26T09:49:26.484Z,11.83
2019-03-26T09:51:57.013Z,10.87
2019-03-26T09:54:27.746Z,7.45
2019-03-26T09:56:58.479Z,11.05
2019-03-26T09:59:29.009Z,12.82
2019-03-26T10:01:59.333Z,11.57
2019-03-26T10:04:29.862Z,11.33
2019-03-26T10:07:00.389Z,11.50
2019-03-26T10:09:30.713Z,10.15
2019-03-26T10:12:01.040Z,5.25
2019-03-26T10:14:31.360Z,13.83
2019-03-26T10:17:01.684Z,15.38
2019-03-26T10:19:32.213Z,9.50
2019-03-26T10:22:02.742Z,7.65
2019-03-26T10:24:33.064Z,8.10
2019-03-26T10:27:03.392Z,16.43
2019-03-26T10:29:33.712Z,13.97
2019-03-26T10:32:04.036Z,13.83
2019-03-26T10:34:36.582Z,11.50
2019-03-26T10:37:06.732Z,13.47
2019-03-26T10:39:37.050Z,14.67
2019-03-26T10:42:07.381Z,12.97
2019-03-26T10:44:37.704Z,13.70
2019-03-26T10:47:08.030Z,13.30
2019-03-26T10:49:38.777Z,9.87
2019-03-26T10:52:09.495Z,13.87
2019-03-26T10:54:39.819Z,12.75
2019-03-26T10:57:10.346Z,10.10
2019-03-26T10:59:40.876Z,6.60
2019-03-26T11:02:11.200Z,6.72
2019-03-26T11:04:41.523Z,8.33
2019-03-26T11:07:11.846Z,7.25
2019-03-26T11:09:42.373Z,15.83
2019-03-26T11:12:12.701Z,8.65
2019-03-26T11:14:43.023Z,27.27
2019-03-26T11:17:13.348Z,12.63
2019-03-26T11:19:46.284Z,8.53
2019-03-26T11:22:15.426Z,7.35
2019-03-26T11:24:45.960Z,13.08
2019-03-26T11:27:16.483Z,16.23
2019-03-26T11:29:47.015Z,6.92
2019-03-26T11:32:17.334Z,9.45
2019-03-26T11:34:47.864Z,14.00
2019-03-26T11:37:18.597Z,12.73
2019-03-26T11:39:48.921Z,13.37
2019-03-26T11:42:19.458Z,8.97
2019-03-26T11:44:49.978Z,14.43
2019-03-26T11:47:20.711Z,7.93
2019-03-26T11:49:51.036Z,10.60
2019-03-26T11:52:21.359Z,17.13
2019-03-26T11:54:51.879Z,9.90
2019-03-26T11:57:22.621Z,15.30
2019-03-26T11:59:53.150Z,10.63
2019-03-26T12:02:23.544Z,15.00
2019-03-26T12:04:54.413Z,13.38
2019-03-26T12:07:24.940Z,10.00
2019-03-26T12:09:55.469Z,12.70
2019-03-26T12:12:25.791Z,9.30
2019-03-26T12:14:56.320Z,19.62
2019-03-26T12:17:26.644Z,13.85
2019-03-26T12:19:56.967Z,9.45
2019-03-26T12:22:27.497Z,12.65
2019-03-26T12:24:57.819Z,7.67
2019-03-26T12:27:28.351Z,7.15
2019-03-26T12:29:58.676Z,6.30
2019-03-26T12:32:29.203Z,6.23
2019-03-26T12:35:00.366Z,7.25
2019-03-26T12:37:30.872Z,8.48
2019-03-26T12:40:01.403Z,6.72
2019-03-26T12:42:32.544Z,8.63
2019-03-26T12:45:02.869Z,6.95
2019-03-26T12:47:33.191Z,11.55
2019-03-26T12:50:04.383Z,11.65
2019-03-26T12:52:34.388Z,8.70
2019-03-26T12:55:05.148Z,10.78
2019-03-26T12:57:35.145Z,13.08
2019-03-26T13:00:07.199Z,8.65
2019-03-26T13:02:37.188Z,7.75
2019-03-26T13:05:08.009Z,6.00
2019-03-26T13:07:37.986Z,7.78
2019-03-26T13:10:13.800Z,9.23
2019-03-26T13:12:40.439Z,6.47
2019-03-26T13:15:10.367Z,7.40
2019-03-26T13:17:40.357Z,10.50
2019-03-26T13:20:11.819Z,9.15
2019-03-26T13:22:41.819Z,10.50
2019-03-26T13:25:11.740Z,9.50
2019-03-26T13:27:41.776Z,15.88
2019-03-26T13:30:12.784Z,12.43
2019-03-26T13:32:43.523Z,7.30
2019-03-26T13:35:14.055Z,4.20
2019-03-26T13:37:44.375Z,6.05
2019-03-26T13:40:26.568Z,8.28
2019-03-26T13:42:47.686Z,10.32
2019-03-26T13:45:18.321Z,3.87
2019-03-26T13:47:48.548Z,5.53
2019-03-26T13:50:20.495Z,5.70
2019-03-26T13:52:51.283Z,5.80
2019-03-26T13:55:24.004Z,4.65
2019-03-26T13:57:54.750Z,7.97
2019-03-26T14:00:38.768Z,11.18
2019-03-26T14:03:10.141Z,3.72
2019-03-26T14:05:40.696Z,6.90
2019-03-26T14:08:10.998Z,5.97
2019-03-26T14:10:41.701Z,10.77
2019-03-26T14:13:12.669Z,8.43
2019-03-26T14:15:42.995Z,6.50
2019-03-26T14:18:13.519Z,6.33
2019-03-26T14:20:43.830Z,7.87
2019-03-26T14:23:14.373Z,7.03
2019-03-26T14:25:44.694Z,13.93
2019-03-26T14:28:15.425Z,14.20
2019-03-26T14:30:46.364Z,10.83
2019-03-26T14:33:16.687Z,3.70
2019-03-26T14:35:47.024Z,5.87
2019-03-26T14:38:19.271Z,4.00
2019-03-26T14:40:55.359Z,6.60
2019-03-26T14:43:22.900Z,6.53
2019-03-26T14:45:53.426Z,14.20
2019-03-26T14:48:23.954Z,4.67
2019-03-26T14:50:54.489Z,2.67
2019-03-26T14:53:25.011Z,2.97
2019-03-26T14:55:55.231Z,6.77
2019-03-26T14:58:25.881Z,5.07
2019-03-26T15:00:59.552Z,9.40
2019-03-26T15:03:28.917Z,6.83
2019-03-26T15:05:59.909Z,8.47
2019-03-26T15:08:30.435Z,8.33
2019-03-26T15:11:08.041Z,14.73
2019-03-26T15:13:33.227Z,10.07
2019-03-26T15:16:04.061Z,12.40
2019-03-26T15:18:34.383Z,7.40
2019-03-26T15:21:04.926Z,5.40
2019-03-26T15:23:35.861Z,7.10
2019-03-26T15:26:06.185Z,7.40
2019-03-26T15:28:36.510Z,11.43
2019-03-26T15:31:07.040Z,7.47
2019-03-26T15:33:37.565Z,5.80
2019-03-26T15:36:07.889Z,10.63
2019-03-26T15:38:38.422Z,8.03
2019-03-26T15:41:21.047Z,9.47
2019-03-26T15:43:41.304Z,11.83
2019-03-26T15:46:13.284Z,5.63
2019-03-26T15:48:44.026Z,8.00
2019-03-26T15:51:14.338Z,7.33
2019-03-26T15:53:44.661Z,9.77
2019-03-26T15:56:15.393Z,11.70
2019-03-26T15:58:45.511Z,18.53
2019-03-26T16:01:16.041Z,21.00
2019-03-26T16:03:46.370Z,20.67
2019-03-26T16:06:16.687Z,17.47
2019-03-26T16:08:47.213Z,21.13
2019-03-26T16:11:17.550Z,15.00
2019-03-26T16:13:47.864Z,23.33
2019-03-26T16:16:18.392Z,15.13
2019-03-26T16:18:48.717Z,16.03
2019-03-26T16:21:19.722Z,13.57
2019-03-26T16:23:50.285Z,18.93
2019-03-26T16:26:20.844Z,20.97
2019-03-26T16:28:51.444Z,15.30
2019-03-26T16:31:21.768Z,22.73
2019-03-26T16:33:52.092Z,8.47
2019-03-26T16:36:22.416Z,7.53
2019-03-26T16:38:53.150Z,10.80
2019-03-26T16:41:23.473Z,9.17
2019-03-26T16:43:53.617Z,11.60
2019-03-26T16:46:23.916Z,10.60
2019-03-26T16:48:54.649Z,15.47
2019-03-26T16:51:24.972Z,12.27
2019-03-26T16:53:55.296Z,13.87
2019-03-26T16:56:25.620Z,17.03
2019-03-26T16:59:01.679Z,17.70
2019-03-26T17:01:32.207Z,10.67
2019-03-26T17:04:02.530Z,18.53
2019-03-26T17:06:32.855Z,15.63
2019-03-26T17:09:06.455Z,17.43
2019-03-26T17:11:36.984Z,8.27
2019-03-26T17:14:07.307Z,12.27
2019-03-26T17:16:37.632Z,13.70
2019-03-26T17:19:07.954Z,12.50
2019-03-26T17:21:50.159Z,13.07
2019-03-26T17:24:20.480Z,13.23
2019-03-26T17:26:50.803Z,20.13
2019-03-26T17:29:21.132Z,45.00
2019-03-26T17:31:51.717Z,31.83
2019-03-26T17:34:22.394Z,17.27
2019-03-26T17:37:00.087Z,18.93
2019-03-26T17:39:31.608Z,35.67
2019-03-26T17:42:16.268Z,29.90
2019-03-26T17:44:34.335Z,49.40
2019-03-26T17:47:05.071Z,79.03
2019-03-26T17:49:36.419Z,77.07
2019-03-26T17:52:06.739Z,29.43
2019-03-26T17:54:37.064Z,19.03
2019-03-26T17:57:07.386Z,20.93
2019-03-26T17:59:37.710Z,21.50
2019-03-26T18:02:08.444Z,33.10
2019-03-26T18:04:39.594Z,18.37
2019-03-26T18:07:09.536Z,21.43
2019-03-26T18:09:39.575Z,15.97
2019-03-26T18:12:09.405Z,15.40
2019-03-26T18:14:39.411Z,14.47
2019-03-26T18:17:09.399Z,20.23
2019-03-26T18:19:39.407Z,20.33
2019-03-26T18:22:09.457Z,31.67
2019-03-26T18:24:39.491Z,32.23
2019-03-26T18:27:09.632Z,31.63
2019-03-26T18:29:40.162Z,34.00
2019-03-26T18:32:10.487Z,39.70
2019-03-26T18:34:40.809Z,34.80
2019-03-26T18:37:11.336Z,36.60
2019-03-26T18:39:41.661Z,31.00
2019-03-26T18:42:11.984Z,30.30
2019-03-26T18:44:42.307Z,25.33
2019-03-26T18:47:12.847Z,21.70
2019-03-26T18:49:43.160Z,20.73
2019-03-26T18:52:32.471Z,25.20
2019-03-26T18:55:02.845Z,22.27
2019-03-26T18:57:33.587Z,18.83
2019-03-26T19:00:05.754Z,23.13
2019-03-26T19:02:35.964Z,26.27
2019-03-26T19:05:09.273Z,26.00
2019-03-26T19:07:39.593Z,29.93
2019-03-26T19:10:27.940Z,25.53
2019-03-26T19:12:59.904Z,24.60
2019-03-26T19:15:30.429Z,22.43
2019-03-26T19:18:00.548Z,19.80
2019-03-26T19:20:30.876Z,14.67
2019-03-26T19:23:01.605Z,17.87
2019-03-26T19:25:31.954Z,15.47
2019-03-26T19:28:01.972Z,16.93
2019-03-26T19:30:32.017Z,15.83
2019-03-26T19:33:02.094Z,18.40
2019-03-26T19:35:32.396Z,20.93
2019-03-26T19:38:04.537Z,23.33
2019-03-26T19:40:34.573Z,20.83
2019-03-26T19:43:11.289Z,27.17
2019-03-26T19:45:37.895Z,25.57
2019-03-26T19:48:07.905Z,29.00
2019-03-26T19:50:37.884Z,27.67
2019-03-26T19:53:07.896Z,16.67
2019-03-26T19:55:37.846Z,21.73
2019-03-26T19:58:07.982Z,26.20
2019-03-26T20:00:38.304Z,20.03
2019-03-26T20:03:09.242Z,19.87
2019-03-26T20:05:39.781Z,22.97
2019-03-26T20:08:09.895Z,24.53
2019-03-26T20:10:40.417Z,21.53
2019-03-26T20:13:23.271Z,23.47
2019-03-26T20:15:42.908Z,30.13
2019-03-26T20:18:13.232Z,27.90
2019-03-26T20:20:43.220Z,21.87
2019-03-26T20:23:13.211Z,32.40
2019-03-26T20:25:43.181Z,25.90
2019-03-26T20:28:13.170Z,27.97
2019-03-26T20:30:43.050Z,35.17
2019-03-26T20:33:13.013Z,22.53
2019-03-26T20:35:43.109Z,22.13
2019-03-26T20:38:13.120Z,21.30
2019-03-26T20:40:43.489Z,21.80
2019-03-26T20:43:13.594Z,25.13
2019-03-26T20:45:46.141Z,28.70
2019-03-26T20:48:16.065Z,24.23
2019-03-26T20:50:46.337Z,20.13
2019-03-26T20:53:17.845Z,21.20
2019-03-26T20:55:54.287Z,20.37
2019-03-26T20:58:19.395Z,22.67
2019-03-26T21:00:49.471Z,23.63
2019-03-26T21:03:19.673Z,27.83
2019-03-26T21:05:49.792Z,16.50
2019-03-26T21:08:22.368Z,23.67
2019-03-26T21:10:52.903Z,27.27
2019-03-26T21:13:26.452Z,26.40
2019-03-26T21:15:57.722Z,25.37
2019-03-26T21:18:28.169Z,22.70
2019-03-26T21:20:58.903Z,24.90
2019-03-26T21:23:29.634Z,28.53
2019-03-26T21:25:59.961Z,26.70
2019-03-26T21:28:30.282Z,25.03
2019-03-26T21:31:00.825Z,27.27
2019-03-26T21:33:31.749Z,27.80
2019-03-26T21:36:02.072Z,23.47
2019-03-26T21:38:32.397Z,26.07
2019-03-26T21:41:02.723Z,18.60
2019-03-26T21:43:32.735Z,27.07
2019-03-26T21:46:03.572Z,33.87
2019-03-26T21:48:35.329Z,25.00
2019-03-26T21:51:05.857Z,25.77
2019-03-26T21:53:36.386Z,29.03
2019-03-26T21:56:07.169Z,25.90
2019-03-26T21:58:37.650Z,24.10
2019-03-26T22:01:07.857Z,23.60
2019-03-26T22:03:38.502Z,32.17
2019-03-26T22:06:08.829Z,34.17
2019-03-26T22:08:39.149Z,33.30
2019-03-26T22:11:09.256Z,28.73
2019-03-26T22:13:39.590Z,26.10
2019-03-26T22:16:09.914Z,28.00
2019-03-26T22:18:40.237Z,30.57
2019-03-26T22:21:10.422Z,26.53
2019-03-26T22:23:41.090Z,43.20
2019-03-26T22:26:11.413Z,31.60
2019-03-26T22:28:41.520Z,25.20
2019-03-26T22:31:11.660Z,27.83
2019-03-26T22:33:42.385Z,33.27
2019-03-26T22:36:13.118Z,25.67
2019-03-26T22:38:43.443Z,24.83
2019-03-26T22:41:13.565Z,23.97
2019-03-26T22:43:44.296Z,22.47
2019-03-26T22:46:14.417Z,27.47
2019-03-26T22:48:44.944Z,32.10
2019-03-26T22:51:15.062Z,22.40
2019-03-26T22:53:45.795Z,21.57
2019-03-26T22:56:16.118Z,23.60
2019-03-26T22:58:46.441Z,23.67
2019-03-26T23:01:16.968Z,19.23
2019-03-26T23:03:47.499Z,25.43
2019-03-26T23:06:17.826Z,24.73
2019-03-26T23:08:48.358Z,25.97
2019-03-26T23:11:18.878Z,26.77
2019-03-26T23:13:49.408Z,32.50
2019-03-26T23:16:19.936Z,22.97
2019-03-26T23:18:50.471Z,26.87
2019-03-26T23:21:20.583Z,25.53
2019-03-26T23:23:51.111Z,28.47
2019-03-26T23:26:21.435Z,23.57
2019-03-26T23:28:51.759Z,22.23
2019-03-26T23:31:29.455Z,22.67
2019-03-26T23:33:59.983Z,22.73
2019-03-26T23:36:30.307Z,18.53
2019-03-26T23:39:00.426Z,19.33
2019-03-26T23:41:30.546Z,22.60
2019-03-26T23:44:00.872Z,15.73
2019-03-26T23:46:31.193Z,18.57
2019-03-26T23:49:02.950Z,20.70
2019-03-26T23:51:48.825Z,26.73
2019-03-26T23:54:19.163Z,19.20
2019-03-26T23:57:08.738Z,14.20
2019-03-26T23:59:39.266Z,13.87
